createdAt,value
2023-05-18T00:01:41.126Z,7.77
2023-05-18T00:04:08.261Z,7.73
2023-05-18T00:06:34.902Z,7.71
2023-05-18T00:09:01.413Z,7.62
2023-05-18T00:11:27.911Z,7.65
2023-05-18T00:13:54.447Z,7.60
2023-05-18T00:16:27.417Z,7.63
2023-05-18T00:18:54.783Z,7.62
2023-05-18T00:21:24.988Z,7.48
2023-05-18T00:23:54.627Z,7.49
2023-05-18T00:26:23.288Z,7.43
2023-05-18T00:28:52.632Z,7.42
2023-05-18T00:31:19.235Z,7.39
2023-05-18T00:33:45.855Z,7.36
2023-05-18T00:36:12.379Z,7.29
2023-05-18T00:38:38.899Z,7.30
2023-05-18T00:41:05.512Z,7.31
2023-05-18T00:43:32.055Z,7.26
2023-05-18T00:45:58.764Z,7.27
2023-05-18T00:48:26.716Z,7.23
2023-05-18T00:50:54.036Z,7.22
2023-05-18T00:53:23.369Z,7.25
2023-05-18T00:55:49.961Z,7.22
2023-05-18T00:58:17.171Z,7.18
2023-05-18T01:00:47.271Z,7.22
2023-05-18T01:03:15.394Z,7.21
2023-05-18T01:05:47.621Z,7.14
2023-05-18T01:08:17.832Z,7.12
2023-05-18T01:10:50.755Z,7.12
2023-05-18T01:13:31.111Z,7.11
2023-05-18T01:16:02.322Z,7.10
2023-05-18T01:18:38.291Z,7.10
2023-05-18T01:21:31.635Z,7.07
2023-05-18T01:24:25.861Z,7.04
2023-05-18T01:26:57.619Z,6.96
2023-05-18T01:29:29.324Z,6.97
2023-05-18T01:31:55.899Z,6.93
2023-05-18T01:34:22.515Z,6.91
2023-05-18T01:36:49.075Z,6.87
2023-05-18T01:39:16.268Z,6.89
2023-05-18T01:41:56.270Z,6.89
2023-05-18T01:44:38.925Z,6.83
2023-05-18T01:47:16.795Z,6.78
2023-05-18T01:49:51.523Z,6.72
2023-05-18T01:52:37.984Z,6.69
2023-05-18T01:55:06.528Z,6.79
2023-05-18T01:57:35.162Z,6.86
2023-05-18T02:00:04.654Z,6.87
2023-05-18T02:02:31.359Z,6.81
2023-05-18T02:04:57.896Z,6.76
2023-05-18T02:07:24.377Z,6.72
2023-05-18T02:09:51.018Z,6.72
2023-05-18T02:12:17.499Z,6.78
2023-05-18T02:14:44.024Z,6.73
2023-05-18T02:17:11.607Z,6.68
2023-05-18T02:19:38.716Z,6.70
2023-05-18T02:22:09.637Z,6.73
2023-05-18T02:24:36.215Z,6.67
2023-05-18T02:27:02.759Z,6.59
2023-05-18T02:29:32.451Z,6.57
2023-05-18T02:31:59.084Z,6.58
2023-05-18T02:34:27.431Z,6.61
2023-05-18T02:36:57.815Z,6.58
2023-05-18T02:39:27.932Z,6.55
2023-05-18T02:41:54.542Z,6.52
2023-05-18T02:44:21.722Z,6.56
2023-05-18T02:46:48.309Z,6.53
2023-05-18T02:49:14.847Z,6.43
2023-05-18T02:51:44.804Z,6.44
2023-05-18T02:54:11.447Z,6.45
2023-05-18T02:56:38.528Z,6.48
2023-05-18T02:59:07.932Z,6.45
2023-05-18T03:01:37.231Z,6.50
2023-05-18T03:04:06.696Z,6.49
2023-05-18T03:06:33.393Z,6.50
2023-05-18T03:08:59.966Z,6.53
2023-05-18T03:11:26.536Z,6.49
2023-05-18T03:13:53.123Z,6.39
2023-05-18T03:16:19.833Z,6.38
2023-05-18T03:18:46.885Z,6.30
2023-05-18T03:21:16.716Z,6.24
2023-05-18T03:23:43.251Z,6.18
2023-05-18T03:26:11.460Z,6.21
2023-05-18T03:28:38.715Z,6.20
2023-05-18T03:31:05.710Z,6.19
2023-05-18T03:33:32.363Z,6.15
2023-05-18T03:36:03.548Z,6.05
2023-05-18T03:38:33.089Z,6.05
2023-05-18T03:41:02.495Z,6.06
2023-05-18T03:43:32.367Z,6.12
2023-05-18T03:45:58.962Z,6.18
2023-05-18T03:48:27.232Z,6.09
2023-05-18T03:50:53.753Z,6.15
2023-05-18T03:53:21.568Z,6.24
2023-05-18T03:55:51.714Z,6.24
2023-05-18T03:58:21.137Z,6.22
2023-05-18T04:00:49.464Z,6.27
2023-05-18T04:03:21.548Z,6.31
2023-05-18T04:05:49.699Z,6.27
2023-05-18T04:08:18.056Z,6.21
2023-05-18T04:10:45.541Z,6.24
2023-05-18T04:13:12.425Z,6.26
2023-05-18T04:15:39.000Z,6.31
2023-05-18T04:18:05.666Z,6.32
2023-05-18T04:20:32.382Z,6.35
2023-05-18T04:22:59.071Z,6.37
2023-05-18T04:25:28.063Z,6.39
2023-05-18T04:27:56.112Z,6.36
2023-05-18T04:30:23.410Z,6.42
2023-05-18T04:32:51.091Z,6.42
2023-05-18T04:35:18.598Z,6.24
2023-05-18T04:37:45.315Z,6.12
2023-05-18T04:40:17.523Z,6.12
2023-05-18T04:42:48.443Z,6.24
2023-05-18T04:45:17.167Z,6.23
2023-05-18T04:47:46.857Z,6.26
2023-05-18T04:50:16.047Z,6.13
2023-05-18T04:52:48.455Z,6.14
2023-05-18T04:55:20.068Z,6.38
2023-05-18T04:57:47.636Z,6.47
2023-05-18T05:00:15.054Z,6.59
2023-05-18T05:02:41.617Z,6.69
2023-05-18T05:05:08.792Z,6.67
2023-05-18T05:07:35.349Z,6.84
2023-05-18T05:10:02.270Z,6.97
2023-05-18T05:12:28.884Z,7.26
2023-05-18T05:14:55.594Z,7.28
2023-05-18T05:17:24.140Z,7.21
2023-05-18T05:19:53.678Z,7.14
2023-05-18T05:22:20.435Z,7.39
2023-05-18T05:24:47.073Z,7.39
2023-05-18T05:27:13.644Z,7.63
2023-05-18T05:29:40.212Z,7.68
2023-05-18T05:32:07.273Z,7.61
2023-05-18T05:34:33.780Z,7.61
2023-05-18T05:37:00.271Z,7.53
2023-05-18T05:39:26.817Z,7.65
2023-05-18T05:41:53.343Z,7.69
2023-05-18T05:44:19.830Z,7.72
2023-05-18T05:46:46.420Z,7.68
2023-05-18T05:49:12.922Z,7.76
2023-05-18T05:51:39.490Z,7.63
2023-05-18T05:54:06.088Z,7.77
2023-05-18T05:56:32.622Z,7.81
2023-05-18T05:58:59.521Z,7.86
2023-05-18T06:01:26.151Z,8.01
2023-05-18T06:03:52.698Z,8.08
2023-05-18T06:06:19.279Z,8.23
2023-05-18T06:08:45.770Z,8.32
2023-05-18T06:11:12.806Z,8.35
2023-05-18T06:13:39.432Z,8.24
2023-05-18T06:16:06.083Z,8.14
2023-05-18T06:18:32.689Z,8.20
2023-05-18T06:20:59.258Z,8.27
2023-05-18T06:23:26.154Z,8.29
2023-05-18T06:25:55.209Z,8.26
2023-05-18T06:28:21.977Z,8.37
2023-05-18T06:30:48.656Z,8.40
2023-05-18T06:33:15.228Z,8.33
2023-05-18T06:35:42.234Z,8.45
2023-05-18T06:38:08.880Z,8.43
2023-05-18T06:40:35.595Z,8.42
2023-05-18T06:43:02.282Z,8.46
2023-05-18T06:45:29.024Z,8.47
2023-05-18T06:47:55.949Z,8.45
2023-05-18T06:50:23.020Z,8.53
2023-05-18T06:52:49.604Z,8.54
2023-05-18T06:55:16.201Z,8.58
2023-05-18T06:57:42.966Z,8.59
2023-05-18T07:00:12.385Z,8.57
2023-05-18T07:02:39.939Z,8.57
2023-05-18T07:05:09.057Z,8.55
2023-05-18T07:07:37.680Z,8.52
2023-05-18T07:10:04.903Z,8.67
2023-05-18T07:12:31.503Z,8.82
2023-05-18T07:14:58.031Z,8.80
2023-05-18T07:17:24.614Z,8.89
2023-05-18T07:19:51.142Z,8.89
2023-05-18T07:22:17.698Z,8.94
2023-05-18T07:24:44.227Z,8.97
2023-05-18T07:27:11.037Z,9.01
2023-05-18T07:29:37.687Z,9.02
2023-05-18T07:32:04.544Z,9.15
2023-05-18T07:34:31.415Z,9.33
2023-05-18T07:36:58.236Z,9.44
2023-05-18T07:39:28.836Z,9.41
2023-05-18T07:41:56.396Z,9.49
2023-05-18T07:44:22.982Z,9.50
2023-05-18T07:46:49.689Z,9.63
2023-05-18T07:49:16.333Z,9.87
2023-05-18T07:51:42.851Z,10.03
2023-05-18T07:54:09.386Z,10.14
2023-05-18T07:56:36.115Z,10.39
2023-05-18T07:59:02.975Z,10.36
2023-05-18T08:01:30.348Z,10.40
2023-05-18T08:03:57.103Z,10.40
2023-05-18T08:06:24.088Z,10.41
2023-05-18T08:08:50.693Z,10.56
2023-05-18T08:11:17.319Z,10.71
2023-05-18T08:13:43.933Z,10.81
2023-05-18T08:16:12.349Z,10.90
2023-05-18T08:18:39.471Z,10.83
2023-05-18T08:21:09.382Z,11.03
2023-05-18T08:23:36.633Z,11.04
2023-05-18T08:26:03.653Z,10.96
2023-05-18T08:28:31.421Z,11.13
2023-05-18T08:30:58.440Z,11.17
2023-05-18T08:33:25.770Z,11.18
2023-05-18T08:35:52.696Z,11.24
2023-05-18T08:38:19.363Z,11.34
2023-05-18T08:41:11.240Z,11.44
2023-05-18T08:43:40.666Z,11.67
2023-05-18T08:46:26.371Z,11.76
2023-05-18T08:48:54.909Z,12.14
2023-05-18T08:51:29.856Z,12.17
2023-05-18T08:53:57.149Z,12.63
2023-05-18T08:56:25.228Z,13.00
2023-05-18T08:58:55.714Z,13.44
2023-05-18T09:01:28.372Z,13.00
2023-05-18T09:04:00.691Z,12.80
2023-05-18T09:06:28.542Z,12.69
2023-05-18T09:08:58.232Z,12.82
2023-05-18T09:11:26.959Z,12.71
2023-05-18T09:13:54.804Z,13.13
2023-05-18T09:16:21.462Z,13.31
2023-05-18T09:18:48.063Z,13.13
2023-05-18T09:21:14.648Z,12.95
2023-05-18T09:23:41.576Z,13.11
2023-05-18T09:26:11.522Z,13.26
2023-05-18T09:28:39.468Z,13.17
2023-05-18T09:31:09.084Z,13.26
2023-05-18T09:33:37.553Z,13.33
2023-05-18T09:36:06.066Z,13.44
2023-05-18T09:38:45.734Z,13.60
2023-05-18T09:41:17.507Z,13.54
2023-05-18T09:43:53.297Z,13.33
2023-05-18T09:46:21.015Z,13.41
2023-05-18T09:48:51.452Z,13.50
2023-05-18T09:51:18.342Z,13.57
2023-05-18T09:53:49.716Z,13.50
2023-05-18T09:56:17.916Z,13.78
2023-05-18T09:58:46.071Z,13.72
2023-05-18T10:01:12.597Z,13.79
2023-05-18T10:03:39.408Z,13.85
2023-05-18T10:06:08.210Z,14.03
2023-05-18T10:08:36.054Z,13.98
2023-05-18T10:11:03.321Z,14.38
2023-05-18T10:13:31.796Z,14.52
2023-05-18T10:16:07.517Z,14.49
2023-05-18T10:18:38.710Z,14.33
2023-05-18T10:21:09.762Z,14.26
2023-05-18T10:23:37.243Z,14.22
2023-05-18T10:26:07.758Z,14.32
2023-05-18T10:28:42.364Z,14.67
2023-05-18T10:31:09.460Z,14.57
2023-05-18T10:33:37.947Z,14.53
2023-05-18T10:36:05.508Z,14.43
2023-05-18T10:38:34.569Z,14.47
2023-05-18T10:41:01.668Z,14.42
2023-05-18T10:43:28.947Z,14.22
2023-05-18T10:46:09.231Z,14.36
2023-05-18T10:48:39.198Z,14.03
2023-05-18T10:51:07.961Z,13.97
2023-05-18T10:53:34.804Z,14.10
2023-05-18T10:56:01.781Z,14.29
2023-05-18T10:58:30.742Z,14.60
2023-05-18T11:00:59.374Z,14.67
2023-05-18T11:03:27.410Z,14.59
2023-05-18T11:06:10.256Z,14.62
2023-05-18T11:08:47.886Z,14.46
2023-05-18T11:11:19.869Z,14.39
2023-05-18T11:13:51.366Z,14.60
2023-05-18T11:16:19.502Z,14.81
2023-05-18T11:18:50.872Z,14.94
2023-05-18T11:21:32.611Z,14.89
2023-05-18T11:24:17.722Z,14.77
2023-05-18T11:26:49.926Z,14.62
2023-05-18T11:29:46.495Z,14.83
2023-05-18T11:32:32.587Z,15.09
2023-05-18T11:34:59.910Z,15.30
2023-05-18T11:37:55.855Z,15.70
2023-05-18T11:40:44.792Z,16.07
2023-05-18T11:43:27.690Z,15.85
2023-05-18T11:45:58.948Z,15.23
2023-05-18T11:48:27.493Z,14.73
2023-05-18T11:50:55.008Z,14.54
2023-05-18T11:53:26.384Z,14.57
2023-05-18T11:55:54.728Z,14.49
2023-05-18T11:58:26.293Z,14.32
2023-05-18T12:00:55.879Z,14.34
2023-05-18T12:03:26.653Z,14.23
2023-05-18T12:05:54.124Z,14.19
2023-05-18T12:08:21.805Z,14.04
2023-05-18T12:10:51.116Z,13.94
2023-05-18T12:13:17.955Z,13.92
2023-05-18T12:15:45.605Z,14.04
2023-05-18T12:18:12.565Z,14.19
2023-05-18T12:20:40.818Z,14.51
2023-05-18T12:23:07.519Z,14.44
2023-05-18T12:25:34.209Z,14.50
2023-05-18T12:28:02.090Z,14.48
2023-05-18T12:30:35.076Z,14.48
2023-05-18T12:33:03.202Z,14.78
2023-05-18T12:35:31.146Z,14.95
2023-05-18T12:38:00.815Z,15.15
2023-05-18T12:40:28.554Z,15.09
2023-05-18T12:42:59.531Z,15.41
2023-05-18T12:45:28.454Z,15.85
2023-05-18T12:47:56.212Z,15.50
2023-05-18T12:50:26.452Z,15.50
2023-05-18T12:52:55.287Z,15.32
2023-05-18T12:55:22.706Z,15.32
2023-05-18T12:58:18.102Z,15.47
2023-05-18T13:00:49.180Z,15.39
2023-05-18T13:03:22.206Z,15.11
2023-05-18T13:06:12.365Z,14.89
2023-05-18T13:08:39.023Z,14.82
2023-05-18T13:11:13.796Z,14.85
2023-05-18T13:14:05.041Z,14.84
2023-05-18T13:16:34.648Z,14.74
2023-05-18T13:19:04.355Z,14.95
2023-05-18T13:21:31.097Z,15.20
2023-05-18T13:23:57.825Z,15.16
2023-05-18T13:26:28.788Z,14.96
2023-05-18T13:28:56.549Z,14.92
2023-05-18T13:31:25.180Z,15.12
2023-05-18T13:33:52.114Z,15.25
2023-05-18T13:36:19.368Z,15.20
2023-05-18T13:38:46.060Z,15.32
2023-05-18T13:41:14.969Z,15.32
2023-05-18T13:43:42.672Z,15.05
2023-05-18T13:46:12.032Z,14.84
2023-05-18T13:48:38.675Z,14.69
2023-05-18T13:51:05.272Z,14.91
2023-05-18T13:53:31.884Z,15.01
2023-05-18T13:55:58.406Z,14.93
2023-05-18T13:58:24.985Z,14.80
2023-05-18T14:00:53.729Z,14.79
2023-05-18T14:03:20.460Z,14.94
2023-05-18T14:05:47.115Z,14.79
2023-05-18T14:08:13.677Z,14.95
2023-05-18T14:10:40.459Z,14.93
2023-05-18T14:13:08.474Z,14.83
2023-05-18T14:15:35.019Z,14.80
2023-05-18T14:18:01.620Z,14.82
2023-05-18T14:20:29.335Z,14.95
2023-05-18T14:22:56.371Z,14.98
2023-05-18T14:25:22.848Z,14.98
2023-05-18T14:27:49.402Z,14.90
2023-05-18T14:30:16.076Z,14.91
2023-05-18T14:32:42.686Z,14.79
2023-05-18T14:35:09.425Z,14.60
2023-05-18T14:37:35.992Z,14.72
2023-05-18T14:40:02.519Z,14.62
2023-05-18T14:42:29.597Z,14.53
2023-05-18T14:44:56.144Z,14.56
2023-05-18T14:47:23.800Z,14.46
2023-05-18T14:49:50.411Z,14.43
2023-05-18T14:52:16.964Z,14.53
2023-05-18T14:54:43.556Z,14.47
2023-05-18T14:57:10.344Z,14.56
2023-05-18T14:59:36.957Z,14.71
2023-05-18T15:02:03.565Z,14.72
2023-05-18T15:04:30.139Z,14.65
2023-05-18T15:06:57.131Z,14.54
2023-05-18T15:09:25.288Z,14.53
2023-05-18T15:11:53.234Z,14.50
2023-05-18T15:14:20.029Z,14.30
2023-05-18T15:16:46.842Z,14.30
2023-05-18T15:19:13.643Z,14.23
2023-05-18T15:21:40.325Z,14.36
2023-05-18T15:24:07.313Z,14.48
2023-05-18T15:26:34.174Z,14.53
2023-05-18T15:29:00.693Z,14.48
2023-05-18T15:31:27.251Z,14.38
2023-05-18T15:33:53.802Z,14.41
2023-05-18T15:36:21.659Z,14.41
2023-05-18T15:38:48.218Z,14.36
2023-05-18T15:41:14.867Z,14.30
2023-05-18T15:43:41.831Z,14.28
2023-05-18T15:46:08.466Z,14.33
2023-05-18T15:48:35.033Z,14.39
2023-05-18T15:51:01.636Z,14.26
2023-05-18T15:53:28.222Z,14.19
2023-05-18T15:55:58.759Z,14.25
2023-05-18T15:58:26.466Z,14.13
2023-05-18T16:00:57.137Z,14.08
2023-05-18T16:03:23.877Z,14.23
2023-05-18T16:05:50.576Z,14.22
2023-05-18T16:08:17.101Z,14.22
2023-05-18T16:10:43.625Z,14.23
2023-05-18T16:13:10.115Z,14.20
2023-05-18T16:15:36.961Z,14.26
2023-05-18T16:18:03.849Z,14.16
2023-05-18T16:20:30.784Z,14.04
2023-05-18T16:22:58.322Z,13.99
2023-05-18T16:25:25.296Z,13.98
2023-05-18T16:27:51.997Z,13.97
2023-05-18T16:30:18.547Z,13.99
2023-05-18T16:32:45.223Z,13.96
2023-05-18T16:35:12.296Z,14.01
2023-05-18T16:37:39.147Z,14.09
2023-05-18T16:40:06.725Z,14.10
2023-05-18T16:42:33.422Z,14.02
2023-05-18T16:44:59.974Z,13.95
2023-05-18T16:47:27.693Z,13.97
2023-05-18T16:49:54.578Z,13.90
2023-05-18T16:52:21.573Z,13.82
2023-05-18T16:54:48.296Z,13.79
2023-05-18T16:57:15.187Z,13.65
2023-05-18T16:59:44.988Z,13.71
2023-05-18T17:02:13.980Z,13.69
2023-05-18T17:04:41.402Z,13.65
2023-05-18T17:07:09.908Z,13.66
2023-05-18T17:09:40.116Z,13.64
2023-05-18T17:12:07.828Z,13.63
2023-05-18T17:14:34.425Z,13.60
2023-05-18T17:17:01.130Z,13.57
2023-05-18T17:19:27.676Z,13.55
2023-05-18T17:21:54.473Z,13.51
2023-05-18T17:24:20.991Z,13.43
2023-05-18T17:26:47.492Z,13.42
2023-05-18T17:29:17.129Z,13.35
2023-05-18T17:31:45.789Z,13.35
2023-05-18T17:34:12.418Z,13.38
2023-05-18T17:36:39.085Z,13.42
2023-05-18T17:39:05.638Z,13.41
2023-05-18T17:41:33.154Z,13.43
2023-05-18T17:44:02.321Z,13.41
2023-05-18T17:46:29.112Z,13.39
2023-05-18T17:48:55.821Z,13.36
2023-05-18T17:51:24.714Z,13.38
2023-05-18T17:53:51.633Z,13.34
2023-05-18T17:56:18.384Z,13.31
2023-05-18T17:58:45.012Z,13.26
2023-05-18T18:01:12.145Z,13.24
2023-05-18T18:03:39.014Z,13.26
2023-05-18T18:06:05.838Z,13.19
2023-05-18T18:08:32.407Z,13.17
2023-05-18T18:10:59.031Z,13.11
2023-05-18T18:13:26.117Z,13.11
2023-05-18T18:15:52.639Z,13.03
2023-05-18T18:18:19.253Z,12.99
2023-05-18T18:20:45.915Z,12.83
2023-05-18T18:23:12.438Z,12.74
2023-05-18T18:25:39.034Z,12.78
2023-05-18T18:28:05.579Z,12.76
2023-05-18T18:30:32.393Z,12.72
2023-05-18T18:32:59.300Z,12.67
2023-05-18T18:35:26.114Z,12.62
2023-05-18T18:37:52.624Z,12.58
2023-05-18T18:40:19.225Z,12.51
2023-05-18T18:42:47.262Z,12.44
2023-05-18T18:45:13.947Z,12.35
2023-05-18T18:47:40.515Z,12.37
2023-05-18T18:50:07.591Z,12.36
2023-05-18T18:52:34.108Z,12.31
2023-05-18T18:55:01.249Z,12.25
2023-05-18T18:57:27.753Z,12.22
2023-05-18T18:59:56.991Z,12.22
2023-05-18T19:02:23.673Z,12.22
2023-05-18T19:04:50.335Z,12.17
2023-05-18T19:07:16.891Z,12.12
2023-05-18T19:09:43.490Z,12.06
2023-05-18T19:12:10.486Z,11.98
2023-05-18T19:14:37.703Z,11.92
2023-05-18T19:17:04.564Z,11.95
2023-05-18T19:19:32.605Z,11.97
2023-05-18T19:21:59.228Z,11.99
2023-05-18T19:24:25.784Z,11.93
2023-05-18T19:26:55.012Z,11.87
2023-05-18T19:29:21.617Z,11.82
2023-05-18T19:31:48.204Z,11.79
2023-05-18T19:34:14.700Z,11.82
2023-05-18T19:36:44.504Z,11.80
2023-05-18T19:39:10.987Z,11.72
2023-05-18T19:41:38.135Z,11.77
2023-05-18T19:44:04.627Z,11.80
2023-05-18T19:46:31.407Z,11.82
2023-05-18T19:48:57.930Z,11.83
2023-05-18T19:51:27.143Z,11.82
2023-05-18T19:53:53.621Z,11.77
2023-05-18T19:56:22.144Z,11.67
2023-05-18T19:58:49.413Z,11.49
2023-05-18T20:01:19.183Z,11.35
2023-05-18T20:03:47.121Z,11.35
2023-05-18T20:06:16.992Z,11.34
2023-05-18T20:08:43.602Z,11.33
2023-05-18T20:11:16.480Z,11.30
2023-05-18T20:13:43.774Z,11.22
2023-05-18T20:16:10.347Z,11.23
2023-05-18T20:18:37.480Z,11.15
2023-05-18T20:21:04.179Z,11.14
2023-05-18T20:23:30.743Z,11.24
2023-05-18T20:25:57.326Z,11.31
2023-05-18T20:28:26.132Z,11.36
2023-05-18T20:30:52.658Z,11.34
2023-05-18T20:33:19.364Z,11.31
2023-05-18T20:35:46.057Z,11.25
2023-05-18T20:38:16.141Z,11.25
2023-05-18T20:40:46.294Z,11.15
2023-05-18T20:43:18.083Z,11.10
2023-05-18T20:45:52.494Z,11.04
2023-05-18T20:48:24.946Z,11.01
2023-05-18T20:50:52.282Z,11.03
2023-05-18T20:53:19.603Z,11.01
2023-05-18T20:55:49.843Z,11.13
2023-05-18T20:58:19.858Z,11.07
2023-05-18T21:00:46.655Z,11.01
2023-05-18T21:03:21.655Z,11.09
2023-05-18T21:05:49.868Z,11.17
2023-05-18T21:08:21.327Z,11.13
2023-05-18T21:10:47.812Z,10.98
2023-05-18T21:13:15.056Z,10.90
2023-05-18T21:15:41.689Z,10.90
2023-05-18T21:18:08.432Z,10.94
2023-05-18T21:20:34.975Z,10.89
2023-05-18T21:23:01.508Z,10.72
2023-05-18T21:25:31.132Z,10.76
2023-05-18T21:28:01.068Z,10.83
2023-05-18T21:30:27.608Z,10.82
2023-05-18T21:32:54.493Z,10.96
2023-05-18T21:35:21.065Z,11.07
2023-05-18T21:37:51.068Z,11.04
2023-05-18T21:40:20.941Z,11.01
2023-05-18T21:42:47.511Z,10.97
2023-05-18T21:45:14.567Z,10.96
2023-05-18T21:47:41.153Z,10.96
2023-05-18T21:50:11.986Z,10.98
2023-05-18T21:52:38.472Z,11.00
2023-05-18T21:55:05.659Z,10.96
2023-05-18T21:57:33.024Z,10.97
2023-05-18T22:00:02.282Z,10.97
2023-05-18T22:02:28.835Z,10.96
2023-05-18T22:04:55.669Z,10.91
2023-05-18T22:07:22.184Z,10.87
2023-05-18T22:09:50.771Z,10.88
2023-05-18T22:12:17.817Z,10.85
2023-05-18T22:14:44.342Z,10.84
2023-05-18T22:17:10.935Z,10.77
2023-05-18T22:19:37.571Z,10.77
2023-05-18T22:22:04.216Z,10.74
2023-05-18T22:24:34.005Z,10.77
2023-05-18T22:27:05.977Z,10.82
2023-05-18T22:29:32.453Z,10.82
2023-05-18T22:31:59.068Z,10.78
2023-05-18T22:34:25.784Z,10.79
2023-05-18T22:36:52.321Z,10.79
2023-05-18T22:39:19.072Z,10.69
2023-05-18T22:41:45.625Z,10.41
2023-05-18T22:44:12.677Z,10.20
2023-05-18T22:46:42.343Z,10.13
2023-05-18T22:49:08.916Z,9.98
2023-05-18T22:51:38.417Z,10.10
2023-05-18T22:54:05.031Z,10.24
2023-05-18T22:56:31.602Z,10.33
2023-05-18T22:58:58.153Z,10.38
2023-05-18T23:01:24.825Z,10.48
2023-05-18T23:03:51.383Z,10.43
2023-05-18T23:06:22.325Z,10.46
2023-05-18T23:08:53.219Z,10.44
2023-05-18T23:11:19.918Z,10.46
2023-05-18T23:13:46.421Z,10.46
2023-05-18T23:16:13.033Z,10.42
2023-05-18T23:18:39.594Z,10.37
2023-05-18T23:21:14.890Z,10.36
2023-05-18T23:23:45.596Z,10.35
2023-05-18T23:26:12.650Z,10.29
2023-05-18T23:28:39.216Z,10.23
2023-05-18T23:31:05.837Z,10.23
2023-05-18T23:33:32.861Z,10.25
2023-05-18T23:36:03.946Z,10.22
2023-05-18T23:38:35.049Z,10.22
2023-05-18T23:41:03.500Z,10.16
2023-05-18T23:43:30.428Z,10.07
2023-05-18T23:45:59.554Z,10.03
2023-05-18T23:48:38.433Z,10.00
2023-05-18T23:51:05.703Z,10.03
2023-05-18T23:53:34.472Z,9.99
2023-05-18T23:56:06.000Z,9.98
2023-05-18T23:58:32.811Z,9.98
